PWSweather.com
Personal Weather Stations
Station Observations
N9CXKWX1
Lake Beulah Mill Lake West Shore, Mukwonago, WI 53149

Lake Beulah Mill Lake West ShoreMukwonago, WI 53149

Lat: 42.837, Lon: -88.386

Elevation: 835

Station Type: LaCrosse WS-2310

Latest ConditionsUpdated 2:08:03 AM CDT Tuesday, Aug 22, 2017
Currently Today's Max Today's Min Today's Average
Temperature 72.1°F22.3°C 73.6°F23.1°C 72.0°F22.2°C 72.6°F22.6°C
Dew Point 69.9°F21.1°C 70.5°F21.4°C 69.5°F20.8°C 69.9°F21.1°C
Winds 2.0 mph W3.2 kmh W 3.5 mph SW5.6 kmh SW - 1.7 mph 2.7 kmh
Wind Gusts 4.0 mph6.4 kmh 10.0 mph16.1 kmh - -
Humidity 93% 93% 89% 92%
Pressure 29.78 in1008.5 mb 29.79 in1008.8 mb 29.76 in1007.8 mb -
Hour Temp Dew Point Humidity Winds Wind Gusts Pressure Precip Precip Rate Daily Precip Total
02:08 AM 72.1°F22.3°C 69.9°F21.1°C 93% 2.0 mph W3.2 kmh W 4.0 mph6.4 kmh 29.78 in1008.5 mb 0.00 in0.0 mm 0.00 in0.0 mm 0.00 in0.0 mm
02:03 AM 72.1°F22.3°C 69.9°F21.1°C 93% 2.5 mph W4.0 kmh W 3.0 mph4.8 kmh 29.78 in1008.5 mb 0.00 in0.0 mm 0.00 in0.0 mm 0.00 in0.0 mm
01:59 AM 72.1°F22.3°C 69.9°F21.1°C 93% Calm Calm 2.0 mph3.2 kmh 29.78 in1008.5 mb 0.00 in0.0 mm 0.00 in0.0 mm 0.00 in0.0 mm
01:54 AM 72.1°F22.3°C 69.9°F21.1°C 93% 1.5 mph W2.4 kmh W 6.0 mph9.7 kmh 29.78 in1008.5 mb 0.00 in0.0 mm 0.00 in0.0 mm 0.00 in0.0 mm
01:49 AM 72.0°F22.2°C 69.8°F21.0°C 93% Calm Calm 6.0 mph9.7 kmh 29.78 in1008.5 mb 0.00 in0.0 mm 0.00 in0.0 mm 0.00 in0.0 mm
01:44 AM 72.0°F22.2°C 69.8°F21.0°C 93% 1.0 mph SW1.6 kmh SW 2.0 mph3.2 kmh 29.78 in1008.5 mb 0.00 in0.0 mm 0.00 in0.0 mm 0.00 in0.0 mm
01:39 AM 72.0°F22.2°C 69.8°F21.0°C 93% 1.0 mph SW1.6 kmh SW 2.0 mph3.2 kmh 29.79 in1008.8 mb 0.00 in0.0 mm 0.00 in0.0 mm 0.00 in0.0 mm
01:34 AM 72.0°F22.2°C 69.5°F20.8°C 92% Calm Calm 2.0 mph3.2 kmh 29.79 in1008.8 mb 0.00 in0.0 mm 0.00 in0.0 mm 0.00 in0.0 mm
01:29 AM 72.0°F22.2°C 69.5°F20.8°C 92% 1.7 mph SW2.7 kmh SW 4.0 mph6.4 kmh 29.78 in1008.5 mb 0.00 in0.0 mm 0.00 in0.0 mm 0.00 in0.0 mm
01:24 AM 72.1°F22.3°C 69.6°F20.9°C 92% 1.0 mph SW1.6 kmh SW 4.0 mph6.4 kmh 29.78 in1008.5 mb 0.00 in0.0 mm 0.00 in0.0 mm 0.00 in0.0 mm
01:19 AM 72.1°F22.3°C 69.6°F20.9°C 92% 1.0 mph SW1.6 kmh SW 3.0 mph4.8 kmh 29.78 in1008.5 mb 0.00 in0.0 mm 0.00 in0.0 mm 0.00 in0.0 mm
01:14 AM 72.2°F22.3°C 69.7°F20.9°C 92% 1.8 mph SW2.9 kmh SW 5.0 mph8.0 kmh 29.77 in1008.1 mb 0.00 in0.0 mm 0.00 in0.0 mm 0.00 in0.0 mm
01:09 AM 72.3°F22.4°C 69.8°F21.0°C 92% 1.8 mph SW2.9 kmh SW 5.0 mph8.0 kmh 29.77 in1008.1 mb 0.00 in0.0 mm 0.00 in0.0 mm 0.00 in0.0 mm
01:04 AM 72.4°F22.4°C 69.9°F21.1°C 92% 1.0 mph SW1.6 kmh SW 4.0 mph6.4 kmh 29.77 in1008.1 mb 0.00 in0.0 mm 0.00 in0.0 mm 0.00 in0.0 mm
12:59 AM 72.5°F22.5°C 69.7°F20.9°C 91% 2.2 mph SW3.5 kmh SW 6.0 mph9.7 kmh 29.77 in1008.1 mb 0.00 in0.0 mm 0.00 in0.0 mm 0.00 in0.0 mm
12:54 AM 72.6°F22.6°C 69.8°F21.0°C 91% 2.9 mph SW4.7 kmh SW 6.0 mph9.7 kmh 29.77 in1008.1 mb 0.00 in0.0 mm 0.00 in0.0 mm 0.00 in0.0 mm
12:49 AM 72.7°F22.6°C 69.9°F21.1°C 91% 2.4 mph SW3.9 kmh SW 5.0 mph8.0 kmh 29.76 in1007.8 mb 0.00 in0.0 mm 0.00 in0.0 mm 0.00 in0.0 mm
12:44 AM 72.8°F22.7°C 70.0°F21.1°C 91% 2.9 mph SW4.7 kmh SW 5.0 mph8.0 kmh 29.76 in1007.8 mb 0.00 in0.0 mm 0.00 in0.0 mm 0.00 in0.0 mm
12:39 AM 73.0°F22.8°C 70.2°F21.2°C 91% 2.6 mph SW4.2 kmh SW 4.0 mph6.4 kmh 29.76 in1007.8 mb 0.00 in0.0 mm 0.00 in0.0 mm 0.00 in0.0 mm
12:34 AM 73.1°F22.8°C 70.0°F21.1°C 90% 1.9 mph SSE3.1 kmh SSE 5.0 mph8.0 kmh 29.76 in1007.8 mb 0.00 in0.0 mm 0.00 in0.0 mm 0.00 in0.0 mm
12:29 AM 73.3°F22.9°C 70.2°F21.2°C 90% 1.3 mph SW2.1 kmh SW 5.0 mph8.0 kmh 29.77 in1008.1 mb 0.00 in0.0 mm 0.00 in0.0 mm 0.00 in0.0 mm
12:24 AM 73.4°F23.0°C 70.3°F21.3°C 90% 2.2 mph SW3.5 kmh SW 5.0 mph8.0 kmh 29.77 in1008.1 mb 0.00 in0.0 mm 0.00 in0.0 mm 0.00 in0.0 mm
12:19 AM 73.5°F23.1°C 70.4°F21.3°C 90% 1.7 mph SW2.7 kmh SW 7.0 mph11.3 kmh 29.77 in1008.1 mb 0.00 in0.0 mm 0.00 in0.0 mm 0.00 in0.0 mm
12:14 AM 73.6°F23.1°C 70.5°F21.4°C 90% 2.3 mph SW3.7 kmh SW 8.0 mph12.9 kmh 29.78 in1008.5 mb 0.00 in0.0 mm 0.00 in0.0 mm 0.00 in0.0 mm
12:09 AM 73.6°F23.1°C 70.5°F21.4°C 90% 1.9 mph SW3.1 kmh SW 8.0 mph12.9 kmh 29.78 in1008.5 mb 0.00 in0.0 mm 0.00 in0.0 mm 0.00 in0.0 mm
12:04 AM 73.6°F23.1°C 70.2°F21.2°C 89% 3.5 mph SW5.6 kmh SW 10.0 mph16.1 kmh 29.78 in1008.5 mb 0.00 in0.0 mm 0.00 in0.0 mm 0.00 in0.0 mm